CDT,Max TemperatureF,Mean TemperatureF,Min TemperatureF,Max Dew PointF,MeanDew PointF,Min DewpointF,Max Humidity, Mean Humidity, Min Humidity, Max Sea Level PressureIn, Mean Sea Level PressureIn, Min Sea Level PressureIn, Max VisibilityMiles, Mean VisibilityMiles, Min VisibilityMiles, Max Wind SpeedMPH, Mean Wind SpeedMPH, Max Gust SpeedMPH,PrecipitationIn, CloudCover, Events, WindDirDegrees
2013-5-1,89,79,68,66,64,63,87,65,43,29.92,29.82,29.76,,,,12,5,18,0.00,5,,138
2013-5-2,75,62,48,63,47,33,78,64,50,30.35,30.14,29.92,10,10,10,22,12,37,0.00,6,Thunderstorm,333
2013-5-3,71,58,44,32,27,21,58,37,16,30.35,30.23,30.08,10,10,10,20,7,33,0.00,0,,350
2013-5-4,85,66,46,37,31,26,60,37,13,30.08,29.97,29.86,10,10,10,13,4,20,0.00,0,,277
2013-5-5,79,65,51,45,39,33,54,41,27,30.16,30.06,29.99,10,10,10,14,5,21,0.00,0,,11
2013-5-6,76,63,50,49,45,43,77,56,35,30.15,30.07,30.00,10,10,10,7,2,11,0.00,1,,166
2013-5-7,87,69,51,54,49,46,89,57,24,30.08,30.01,29.92,10,10,10,12,4,17,T,0,,152
2013-5-8,86,76,65,63,61,55,87,66,44,30.03,29.96,29.87,10,10,9,15,8,27,0.01,5,Rain-Thunderstorm,168
2013-5-9,78,72,66,68,65,62,87,77,67,29.95,29.91,29.85,10,9,2,21,6,35,0.03,7,Rain-Thunderstorm,174
2013-5-10,88,75,62,66,62,59,93,67,40,30.04,29.92,29.80,10,9,0,21,5,34,1.28,4,Fog-Rain-Thunderstorm,358
2013-5-11,83,73,62,61,55,45,93,63,33,30.14,30.07,30.01,10,10,4,15,6,21,0.00,0,,358
2013-5-12,83,72,60,54,48,40,72,49,25,30.25,30.16,30.11,10,10,10,12,4,17,0.00,0,,27
2013-5-13,87,70,53,57,48,40,77,51,25,30.25,30.20,30.15,10,10,10,12,4,17,0.00,0,,133
2013-5-14,87,74,61,66,61,57,90,65,40,30.21,30.12,29.99,10,10,10,16,7,26,0.00,2,,177
2013-5-15,87,77,67,71,68,65,97,77,57,30.07,29.97,29.82,10,8,4,18,8,30,0.13,7,Rain-Thunderstorm,167
2013-5-16,94,82,70,71,69,67,97,69,41,29.87,29.80,29.68,10,9,2,15,8,24,0.05,6,Rain,162
2013-5-17,95,85,75,72,70,68,87,67,46,29.89,29.81,29.76,10,8,5,15,8,24,0.00,4,,163
2013-5-18,96,84,72,70,67,62,93,66,38,29.93,29.85,29.78,10,7,5,17,10,30,0.00,2,,171
2013-5-19,94,84,73,69,68,65,87,66,44,29.85,29.79,29.70,10,9,6,16,9,27,0.00,5,,164
2013-5-20,94,86,77,70,69,67,87,64,41,29.85,29.79,29.71,10,10,8,17,9,27,0.00,5,,163
2013-5-21,90,80,69,73,69,60,82,67,52,29.87,29.76,29.67,10,9,5,15,7,26,T,7,Rain,163
2013-5-22,94,78,61,72,61,53,90,61,32,29.91,29.86,29.79,10,10,8,12,3,17,0.00,1,,121
2013-5-23,91,83,75,72,70,68,87,69,50,30.02,29.93,29.85,10,9,7,14,7,21,0.00,6,,157
2013-5-24,84,75,65,72,69,63,93,84,74,30.14,30.07,29.99,10,7,0,20,5,32,3.30,7,Fog-Rain-Thunderstorm,134
2013-5-25,81,76,70,73,70,67,97,83,69,30.16,30.10,30.03,10,7,2,14,7,23,0.45,7,Rain,138
2013-5-26,87,79,71,73,70,66,93,75,57,30.11,30.05,29.96,10,8,0,15,7,27,0.78,6,Fog-Rain,161
2013-5-27,90,81,72,70,68,67,93,73,52,30.01,29.94,29.82,10,10,8,16,9,24,0.00,5,,167
2013-5-28,91,83,74,70,69,67,87,69,50,29.90,29.83,29.75,10,10,10,20,9,32,0.00,5,,162
2013-5-29,89,82,74,72,70,68,87,71,55,29.90,29.78,29.69,10,10,10,21,11,34,T,7,,158
2013-5-30,91,83,75,72,71,70,87,71,55,29.85,29.79,29.73,10,10,10,15,8,25,T,7,Rain,174
2013-5-31,92,85,77,73,72,70,82,69,55,29.89,29.82,29.72,10,10,10,15,8,26,0.00,6,,177